Time;durP1;ratioP1;P1;durP2;ratioP2;P2;SDS_P1;SDS_P2;PMS_P1;PMS_P2;Temp;Humidity;BMP_temperature;BMP_pressure;BME280_temperature;BME280_humidity;BME280_pressure;Samples;Min_cycle;Max_cycle;Signal;HPM_P1;HPM_P2
2022/04/06 00:00:12;;;;;;;;;1.00;1.00;;;;;16.04;56.89;100396.66;5069936;28;9480;-69
2022/04/06 00:02:42;;;;;;;;;2.33;2.33;;;;;16.03;57.10;100401.03;5071344;28;8783;-69
2022/04/06 00:05:09;;;;;;;;;1.67;1.67;;;;;16.02;56.95;100401.91;5070972;28;9372;-70
2022/04/06 00:07:43;;;;;;;;;2.00;1.00;;;;;16.07;56.98;100399.25;5055456;28;10153;-70
2022/04/06 00:10:10;;;;;;;;;3.25;1.50;;;;;16.04;57.00;100396.66;5050995;28;9337;-70
2022/04/06 00:12:37;;;;;;;;;0.67;0.67;;;;;16.02;57.13;100388.75;5057096;28;9389;-70
2022/04/06 00:15:08;;;;;;;;;2.00;1.00;;;;;16.04;56.93;100391.38;5069854;28;9366;-70
2022/04/06 00:17:33;;;;;;;;;3.00;3.00;;;;;16.09;57.00;100386.94;5071139;28;9402;-70
2022/04/06 00:19:59;;;;;;;;;0.67;0.67;;;;;16.11;57.03;100390.44;5070871;28;9338;-70
2022/04/06 00:22:24;;;;;;;;;1.00;1.00;;;;;16.05;56.76;100383.44;5070308;28;8919;-70
2022/04/06 00:24:50;;;;;;;;;1.00;1.00;;;;;16.06;56.87;100381.69;5070749;28;8773;-70
2022/04/06 00:27:15;;;;;;;;;1.00;1.00;;;;;16.05;57.12;100380.81;5071161;28;8816;-70
2022/04/06 00:29:41;;;;;;;;;1.00;1.00;;;;;16.03;57.07;100376.47;5070375;28;8799;-70
2022/04/06 00:32:06;;;;;;;;;1.33;1.33;;;;;16.03;57.05;100379.09;5070859;28;8764;-70
2022/04/06 00:37:16;;;;;;;;;1.00;0.67;;;;;16.06;57.21;100379.06;5070672;28;8796;-69
2022/04/06 00:39:41;;;;;;;;;1.00;1.00;;;;;16.08;56.99;100378.19;5070592;28;9284;-70
2022/04/06 00:42:06;;;;;;;;;1.00;1.00;;;;;16.01;57.12;100368.56;5069755;28;8780;-70
2022/04/06 00:44:34;;;;;;;;;1.75;1.75;;;;;16.04;57.11;100368.56;5070713;28;8781;-69
2022/04/06 00:47:00;;;;;;;;;1.67;1.33;;;;;16.04;56.97;100363.28;5070323;28;9427;-70
2022/04/06 00:49:26;;;;;;;;;1.33;1.33;;;;;16.03;56.92;100360.66;5069463;28;9990;-69
2022/04/06 00:51:52;;;;;;;;;3.25;2.00;;;;;15.98;57.02;100367.72;5070418;28;9268;-69
2022/04/06 00:54:21;;;;;;;;;3.00;1.00;;;;;16.04;56.96;100358.03;5070377;28;8816;-69
2022/04/06 00:56:47;;;;;;;;;1.67;1.67;;;;;16.01;56.84;100351.91;5069696;28;8833;-69
2022/04/06 00:59:15;;;;;;;;;2.33;1.00;;;;;16.03;56.70;100347.50;5070394;28;9257;-70
2022/04/06 01:01:40;;;;;;;;;1.33;1.33;;;;;16.03;56.96;100342.22;5070371;28;9451;-70
2022/04/06 01:04:06;;;;;;;;;1.00;1.00;;;;;16.01;56.77;100342.22;5069094;28;9251;-70
2022/04/06 01:06:31;;;;;;;;;1.00;1.00;;;;;15.98;56.84;100344.03;5064167;28;9537;-69
2022/04/06 01:08:57;;;;;;;;;1.00;1.00;;;;;15.98;56.88;100338.75;5050185;28;8783;-69
2022/04/06 01:11:25;;;;;;;;;2.00;1.00;;;;;16.00;56.78;100343.16;5049311;28;8896;-69
2022/04/06 01:13:53;;;;;;;;;2.33;1.00;;;;;16.02;56.61;100329.94;5065843;28;8954;-70
2022/04/06 01:16:18;;;;;;;;;1.25;1.25;;;;;15.97;56.52;100342.28;5070314;28;9202;-70
2022/04/06 01:18:43;;;;;;;;;4.00;2.33;;;;;15.97;56.86;100335.28;5068978;28;9527;-70
2022/04/06 01:21:11;;;;;;;;;1.00;1.00;;;;;16.00;56.43;100335.25;5070194;28;9550;-70
2022/04/06 01:23:38;;;;;;;;;1.75;1.00;;;;;15.98;56.45;100329.09;5070105;28;8777;-70
2022/04/06 01:26:07;;;;;;;;;5.00;3.00;;;;;16.02;56.47;100341.34;5069631;28;9410;-69
2022/04/06 01:28:32;;;;;;;;;1.00;1.00;;;;;15.96;56.61;100336.16;5069888;28;9272;-69
2022/04/06 01:30:57;;;;;;;;;3.00;1.00;;;;;15.97;56.41;100332.66;5068946;28;9261;-69
2022/04/06 01:33:22;;;;;;;;;2.00;2.00;;;;;16.03;56.41;100336.97;5069851;28;8865;-69
2022/04/06 01:35:49;;;;;;;;;1.00;0.67;;;;;15.99;56.20;100338.75;5069632;28;8828;-70
2022/04/06 01:38:14;;;;;;;;;0.33;0.33;;;;;16.00;56.36;100327.34;5069498;28;8784;-70
2022/04/06 01:40:40;;;;;;;;;1.67;1.00;;;;;16.00;56.33;100337.88;5070086;28;9268;-69
2022/04/06 01:43:05;;;;;;;;;2.00;2.00;;;;;15.98;56.26;100325.59;5069385;28;8800;-69
2022/04/06 01:45:30;;;;;;;;;2.00;1.00;;;;;15.94;56.10;100333.53;5069281;28;8784;-69
2022/04/06 01:47:56;;;;;;;;;0.00;0.00;;;;;15.99;56.09;100320.31;5069406;28;8871;-69
2022/04/06 01:53:05;;;;;;;;;1.00;1.00;;;;;15.97;56.29;100326.50;5068845;28;8765;-69
2022/04/06 01:55:30;;;;;;;;;0.67;0.67;;;;;16.00;56.11;100327.34;5069478;28;9292;-69
2022/04/06 01:57:56;;;;;;;;;1.67;1.67;;;;;15.95;55.87;100332.66;5069476;28;8768;-69
2022/04/06 02:00:21;;;;;;;;;3.00;0.67;;;;;15.94;56.20;100328.25;5069083;28;8874;-69
2022/04/06 02:02:50;;;;;;;;;0.00;0.00;;;;;16.00;55.99;100335.25;5069421;28;8857;-69
2022/04/06 02:05:17;;;;;;;;;3.00;1.00;;;;;15.96;55.88;100325.63;5069981;28;8812;-69
2022/04/06 02:07:43;;;;;;;;;1.00;1.00;;;;;15.99;55.87;100322.06;5053019;28;9250;-69
2022/04/06 02:10:09;;;;;;;;;1.33;1.33;;;;;15.97;56.01;100318.59;5049720;28;9057;-69
2022/04/06 02:12:35;;;;;;;;;2.33;2.33;;;;;15.93;56.00;100315.97;5055432;28;9265;-69
2022/04/06 02:15:03;;;;;;;;;2.33;1.00;;;;;15.94;55.98;100319.47;5068286;28;9296;-69
2022/04/06 02:17:29;;;;;;;;;3.00;2.00;;;;;16.02;55.80;100322.03;5069869;28;8765;-69
2022/04/06 02:19:55;;;;;;;;;2.00;2.00;;;;;16.01;55.81;100320.31;5069092;28;10032;-69
2022/04/06 02:22:20;;;;;;;;;2.00;1.67;;;;;15.97;55.75;100323.88;5071083;28;8799;-69
2022/04/06 02:24:46;;;;;;;;;2.00;1.00;;;;;15.94;55.88;100307.19;5072687;28;10086;-70
2022/04/06 02:27:14;;;;;;;;;1.00;1.00;;;;;15.97;55.52;100303.69;5072458;28;8951;-70
2022/04/06 02:29:40;;;;;;;;;1.00;1.00;;;;;15.93;55.80;100304.59;5073247;28;8792;-69
2022/04/06 02:32:06;;;;;;;;;1.33;1.33;;;;;15.97;55.67;100308.06;5073112;28;9044;-69
2022/04/06 02:34:32;;;;;;;;;2.00;2.00;;;;;15.95;55.51;100305.44;5071973;28;9324;-69
2022/04/06 02:36:57;;;;;;;;;2.00;1.00;;;;;15.95;55.58;100290.53;5072822;28;9375;-69
2022/04/06 02:39:22;;;;;;;;;1.00;1.00;;;;;15.94;55.57;100294.03;5072739;28;8768;-69
2022/04/06 02:41:50;;;;;;;;;0.33;0.33;;;;;15.93;55.47;100291.44;5071986;28;8775;-69
2022/04/06 02:44:16;;;;;;;;;2.00;1.00;;;;;15.95;55.21;100281.75;5072672;28;8816;-69
2022/04/06 02:46:46;;;;;;;;;2.00;2.00;;;;;15.94;55.43;100277.34;5072752;28;9123;-69
2022/04/06 02:49:11;;;;;;;;;0.67;0.67;;;;;16.00;55.52;100277.31;5072179;28;9249;-69
2022/04/06 02:51:37;;;;;;;;;1.00;1.00;;;;;15.92;55.32;100272.13;5072551;28;9091;-69
2022/04/06 02:54:02;;;;;;;;;2.00;2.00;;;;;15.93;55.69;100279.13;5072254;28;8796;-69
2022/04/06 02:56:28;;;;;;;;;1.00;1.00;;;;;16.00;55.42;100273.81;5071941;28;8820;-69
2022/04/06 02:58:53;;;;;;;;;0.67;0.00;;;;;16.02;55.03;100267.63;5072443;28;8822;-70
2022/04/06 03:01:19;;;;;;;;;2.33;0.33;;;;;15.91;55.45;100256.31;5072687;28;8845;-69
2022/04/06 03:03:44;;;;;;;;;2.00;1.67;;;;;16.00;55.06;100264.16;5071690;28;8772;-69
2022/04/06 03:06:09;;;;;;;;;1.00;0.00;;;;;15.95;55.01;100263.31;5069484;28;8802;-69
2022/04/06 03:08:35;;;;;;;;;1.00;1.00;;;;;15.95;55.30;100256.28;5052751;28;8815;-69
2022/04/06 03:11:00;;;;;;;;;0.00;0.00;;;;;15.94;55.05;100254.53;5051735;28;8787;-69
2022/04/06 03:13:25;;;;;;;;;2.00;1.00;;;;;15.92;54.97;100258.97;5064765;28;8788;-68
2022/04/06 03:15:51;;;;;;;;;1.00;1.00;;;;;15.96;54.93;100254.53;5071848;28;9570;-68
2022/04/06 03:18:16;;;;;;;;;1.00;1.00;;;;;15.89;55.11;100252.84;5071737;28;8819;-69
2022/04/06 03:20:42;;;;;;;;;0.00;0.00;;;;;15.96;54.79;100257.16;5072482;28;8882;-69
2022/04/06 03:23:15;;;;;;;;;1.00;0.00;;;;;15.94;54.97;100253.66;5072041;28;8793;-68
2022/04/06 03:25:40;;;;;;;;;1.00;1.00;;;;;15.95;54.97;100247.53;5071947;28;8830;-69
2022/04/06 03:28:05;;;;;;;;;1.00;1.00;;;;;15.95;54.88;100243.13;5071913;28;8998;-69
2022/04/06 03:30:31;;;;;;;;;0.33;0.33;;;;;15.91;54.92;100249.31;5071544;28;8843;-70
2022/04/06 03:32:56;;;;;;;;;0.00;0.00;;;;;15.93;54.91;100246.69;5071618;28;8819;-70
2022/04/06 03:35:21;;;;;;;;;2.33;1.00;;;;;15.91;54.88;100237.91;5071761;28;8842;-69
2022/04/06 03:37:47;;;;;;;;;0.00;0.00;;;;;15.95;54.85;100239.63;5070801;28;8795;-70
2022/04/06 03:40:15;;;;;;;;;0.67;0.00;;;;;15.92;54.66;100232.63;5071707;28;8796;-70
2022/04/06 03:42:40;;;;;;;;;0.33;0.33;;;;;15.96;54.39;100233.47;5071587;28;8796;-69
2022/04/06 03:45:06;;;;;;;;;2.00;1.00;;;;;15.90;54.96;100225.63;5070974;28;9006;-69
2022/04/06 03:47:32;;;;;;;;;3.67;1.00;;;;;15.90;54.81;100223.00;5071839;28;8804;-70
2022/04/06 03:49:59;;;;;;;;;0.00;0.00;;;;;15.90;54.68;100218.59;5071436;28;8779;-70
2022/04/06 03:52:28;;;;;;;;;1.00;1.00;;;;;15.91;54.49;100216.84;5071162;28;9009;-70
2022/04/06 03:54:53;;;;;;;;;0.00;0.00;;;;;15.90;54.61;100215.09;5071030;28;9205;-70
2022/04/06 03:57:19;;;;;;;;;0.67;0.67;;;;;15.90;54.71;100218.59;5071872;28;9206;-70
2022/04/06 03:59:44;;;;;;;;;0.67;0.00;;;;;15.90;54.41;100218.59;5070504;28;8769;-69
2022/04/06 04:02:09;;;;;;;;;0.00;0.00;;;;;15.92;54.38;100216.84;5071711;28;8800;-69
2022/04/06 04:04:35;;;;;;;;;0.67;0.67;;;;;15.92;54.60;100215.97;5071229;28;8804;-70
2022/04/06 04:07:01;;;;;;;;;0.67;0.67;;;;;15.94;54.46;100211.53;5060307;28;9580;-69
2022/04/06 04:09:28;;;;;;;;;1.00;1.00;;;;;15.94;54.37;100207.16;5051005;28;8795;-69
2022/04/06 04:11:56;;;;;;;;;0.33;0.00;;;;;15.87;54.46;100199.34;5050936;28;9069;-69
2022/04/06 04:14:21;;;;;;;;;0.00;0.00;;;;;15.85;54.64;100206.38;5030513;28;9229;-69
2022/04/06 04:16:47;;;;;;;;;1.00;0.00;;;;;15.87;54.55;100191.44;5030980;28;9956;-70
2022/04/06 04:19:12;;;;;;;;;0.67;0.00;;;;;15.86;54.43;100194.94;5031113;28;8778;-70
2022/04/06 04:21:37;;;;;;;;;0.00;0.00;;;;;15.90;54.53;100191.41;5030352;28;8761;-70
2022/04/06 04:24:08;;;;;;;;;0.67;0.00;;;;;15.85;54.50;100191.47;5030704;28;8949;-69
2022/04/06 04:26:34;;;;;;;;;0.67;0.67;;;;;15.88;54.28;100195.81;5030382;28;8773;-70
2022/04/06 04:29:00;;;;;;;;;0.33;0.33;;;;;15.88;54.18;100185.28;5030771;28;9166;-70
2022/04/06 04:31:28;;;;;;;;;1.00;1.00;;;;;15.86;54.16;100187.94;5031062;28;9138;-70
2022/04/06 04:33:53;;;;;;;;;1.00;1.00;;;;;15.92;54.44;100181.75;5029910;28;8782;-69
2022/04/06 04:36:19;;;;;;;;;0.67;0.00;;;;;15.88;54.05;100172.13;5030443;28;9158;-69
2022/04/06 04:38:44;;;;;;;;;0.33;0.33;;;;;15.87;54.43;100187.03;5030600;28;8781;-70
2022/04/06 04:41:09;;;;;;;;;1.00;1.00;;;;;15.84;54.32;100181.81;5030013;28;8840;-70
2022/04/06 04:43:36;;;;;;;;;0.00;0.00;;;;;15.87;54.10;100180.91;5030829;28;8812;-70
2022/04/06 04:46:02;;;;;;;;;1.00;1.00;;;;;15.90;54.24;100176.47;5029691;28;8789;-70
2022/04/06 04:48:30;;;;;;;;;1.00;0.00;;;;;15.86;54.46;100164.25;5029945;28;9136;-70
2022/04/06 04:50:58;;;;;;;;;0.00;0.00;;;;;15.87;54.36;100173.88;5030547;28;9261;-71
2022/04/06 04:53:25;;;;;;;;;1.00;1.00;;;;;15.84;54.19;100167.78;5030323;28;9287;-70
2022/04/06 04:55:50;;;;;;;;;0.00;0.00;;;;;15.89;54.11;100169.50;5029691;28;9171;-71
2022/04/06 04:58:16;;;;;;;;;0.00;0.00;;;;;15.88;54.20;100165.09;5030788;28;9890;-70
2022/04/06 05:00:41;;;;;;;;;1.00;0.00;;;;;15.84;54.17;100155.50;5030713;28;8906;-70
2022/04/06 05:03:08;;;;;;;;;0.00;0.00;;;;;15.90;54.33;100157.16;5029502;28;8888;-69
2022/04/06 05:05:33;;;;;;;;;0.00;0.00;;;;;15.88;54.25;100165.09;5030413;28;8808;-70
2022/04/06 05:07:59;;;;;;;;;0.33;0.33;;;;;15.87;54.43;100159.84;5066161;28;9121;-70
2022/04/06 05:10:25;;;;;;;;;0.00;0.00;;;;;15.88;54.28;100153.69;5069733;28;8765;-69
2022/04/06 05:12:51;;;;;;;;;0.00;0.00;;;;;15.86;54.27;100148.44;5062233;28;8803;-69
2022/04/06 05:15:17;;;;;;;;;0.33;0.33;;;;;15.85;53.99;100153.75;5050092;28;9068;-69
2022/04/06 05:17:42;;;;;;;;;1.00;1.00;;;;;15.89;54.13;100150.19;5049893;28;8783;-69
2022/04/06 05:20:10;;;;;;;;;0.00;0.00;;;;;15.83;54.02;100144.97;5050133;28;9184;-70
2022/04/06 05:22:35;;;;;;;;;0.00;0.00;;;;;15.81;54.10;100145.00;5050154;28;8798;-69
2022/04/06 05:25:04;;;;;;;;;0.00;0.00;;;;;15.88;54.09;100143.16;5049283;28;9120;-69
2022/04/06 05:27:29;;;;;;;;;1.00;0.00;;;;;15.84;54.09;100149.34;5050339;28;8775;-70
2022/04/06 05:29:55;;;;;;;;;0.00;0.00;;;;;15.86;54.23;100148.44;5049473;28;9130;-69
2022/04/06 05:32:20;;;;;;;;;1.33;1.00;;;;;15.88;54.07;100143.16;5049923;28;8790;-68
2022/04/06 05:34:45;;;;;;;;;1.00;0.00;;;;;15.98;57.30;100146.56;5049825;28;8815;-70
2022/04/06 05:37:10;;;;;;;;;0.33;0.00;;;;;15.95;57.52;100147.47;5049453;28;8819;-71
2022/04/06 05:39:36;;;;;;;;;0.00;0.00;;;;;16.07;57.08;100144.72;5050119;28;8771;-70
2022/04/06 05:42:01;;;;;;;;;2.00;0.00;;;;;16.18;61.38;100155.09;5049889;28;8790;-71
2022/04/06 05:44:26;;;;;;;;;2.00;2.00;;;;;16.20;59.87;100156.81;5049612;28;8888;-70
2022/04/06 05:46:52;;;;;;;;;0.67;0.67;;;;;16.29;62.02;100155.84;5049708;28;8787;-72
2022/04/06 05:49:20;;;;;;;;;1.00;1.00;;;;;16.34;63.01;100151.41;5050289;28;8791;-70
2022/04/06 05:51:45;;;;;;;;;1.00;1.00;;;;;16.47;65.19;100149.44;5049354;28;8798;-70
2022/04/06 05:54:10;;;;;;;;;1.00;1.00;;;;;16.55;66.19;100153.72;5050339;28;9266;-70
2022/04/06 05:56:36;;;;;;;;;1.67;1.00;;;;;16.58;65.36;100143.19;5050512;28;8909;-69
2022/04/06 05:59:02;;;;;;;;;1.00;1.00;;;;;16.60;63.61;100146.69;5053097;28;8775;-69
2022/04/06 06:01:27;;;;;;;;;1.00;1.00;;;;;16.62;66.14;100136.97;5053878;28;8819;-68
2022/04/06 06:03:53;;;;;;;;;3.33;2.00;;;;;16.67;66.98;100142.19;5053588;28;9247;-69
2022/04/06 06:06:18;;;;;;;;;7.33;2.00;;;;;16.73;67.91;100139.44;5056967;28;8947;-69
2022/04/06 06:08:43;;;;;;;;;5.00;4.50;;;;;16.73;69.12;100142.09;5073737;28;9606;-70
2022/04/06 06:11:08;;;;;;;;;5.00;3.00;;;;;16.66;68.65;100130.75;5073780;28;8787;-69
2022/04/06 06:13:34;;;;;;;;;3.00;2.67;;;;;16.59;68.66;100137.03;5059300;28;8787;-68
2022/04/06 06:16:03;;;;;;;;;3.75;2.50;;;;;16.58;68.87;100134.41;5053673;28;8919;-69
2022/04/06 06:18:28;;;;;;;;;4.75;3.25;;;;;16.50;68.58;100134.47;5053646;28;8783;-68
2022/04/06 06:20:56;;;;;;;;;2.75;2.00;;;;;16.45;68.16;100144.22;5052280;28;9407;-68
2022/04/06 06:23:21;;;;;;;;;4.75;3.75;;;;;16.47;69.04;100125.75;5053565;28;8901;-69
2022/04/06 06:25:46;;;;;;;;;3.33;3.00;;;;;16.42;67.84;100134.56;5052899;28;9396;-69
2022/04/06 06:28:14;;;;;;;;;2.33;2.33;;;;;16.43;67.72;100133.69;5052859;28;8790;-69
2022/04/06 06:30:40;;;;;;;;;4.33;3.00;;;;;16.39;66.98;100126.72;5052866;28;8775;-69
2022/04/06 06:33:05;;;;;;;;;4.00;2.00;;;;;16.39;67.23;100125.84;5052098;28;9521;-69
2022/04/06 06:35:30;;;;;;;;;2.75;2.50;;;;;16.38;67.24;100126.75;5051413;28;8814;-69
2022/04/06 06:37:56;;;;;;;;;2.00;2.00;;;;;16.37;66.61;100125.88;5052925;28;8861;-69
2022/04/06 06:40:25;;;;;;;;;3.00;3.00;;;;;16.37;66.67;100120.63;5052083;28;8779;-70
2022/04/06 06:42:50;;;;;;;;;3.33;2.33;;;;;16.35;66.24;100124.13;5052889;28;9320;-69
2022/04/06 06:45:17;;;;;;;;;2.67;2.67;;;;;16.35;65.78;100125.00;5052977;28;9261;-69
2022/04/06 06:47:42;;;;;;;;;5.25;3.50;;;;;16.34;65.25;100123.28;5052194;28;8898;-69
2022/04/06 06:50:10;;;;;;;;;4.75;4.50;;;;;16.33;65.33;100124.19;5052635;28;9625;-69
2022/04/06 06:52:36;;;;;;;;;5.00;2.33;;;;;16.31;64.98;100114.53;5052708;28;9570;-69
2022/04/06 06:55:02;;;;;;;;;4.25;3.25;;;;;16.30;65.06;100112.81;5051842;28;9618;-69
2022/04/06 06:57:27;;;;;;;;;1.67;1.00;;;;;16.29;64.55;100111.94;5052625;28;8841;-69
2022/04/06 06:59:53;;;;;;;;;3.67;3.00;;;;;16.29;64.63;100109.31;5052540;28;9192;-69
2022/04/06 07:02:18;;;;;;;;;3.67;3.00;;;;;16.28;64.42;100111.94;5052366;28;8779;-69
2022/04/06 07:04:43;;;;;;;;;2.00;1.00;;;;;16.30;64.27;100116.31;5052564;28;8872;-69
2022/04/06 07:07:08;;;;;;;;;2.67;1.33;;;;;16.32;64.29;100125.06;5063622;28;9512;-69
2022/04/06 07:09:34;;;;;;;;;1.33;1.33;;;;;16.29;63.52;100125.09;5071992;28;8772;-69
2022/04/06 07:11:59;;;;;;;;;3.33;1.67;;;;;16.32;64.04;100111.00;5071365;28;9516;-69
2022/04/06 07:14:26;;;;;;;;;2.67;1.33;;;;;16.32;63.86;100117.16;5052261;28;8818;-68
2022/04/06 07:16:52;;;;;;;;;2.00;2.00;;;;;16.32;63.51;100101.34;5051759;28;8771;-69
2022/04/06 07:19:17;;;;;;;;;3.00;2.00;;;;;16.29;63.34;100097.91;5052289;28;9219;-70
2022/04/06 07:21:42;;;;;;;;;2.00;2.00;;;;;16.30;62.59;100102.28;5052436;28;8775;-68
2022/04/06 07:24:08;;;;;;;;;4.00;2.00;;;;;16.29;62.36;100097.91;5051299;28;9537;-68
2022/04/06 07:26:33;;;;;;;;;3.00;3.00;;;;;16.28;62.08;100102.28;5052349;28;8857;-69
2022/04/06 07:28:59;;;;;;;;;2.00;1.67;;;;;16.28;62.22;100102.28;5051913;28;9507;-68
2022/04/06 07:31:25;;;;;;;;;0.00;0.00;;;;;16.30;62.02;100099.66;5051693;28;8779;-69
2022/04/06 07:33:50;;;;;;;;;2.00;1.00;;;;;16.30;61.73;100094.38;5051625;28;8868;-69
2022/04/06 07:36:17;;;;;;;;;1.33;1.33;;;;;16.31;61.82;100091.69;5052145;28;8823;-68
2022/04/06 07:38:42;;;;;;;;;3.00;1.00;;;;;16.31;61.64;100093.47;5051476;28;8802;-69
2022/04/06 07:41:08;;;;;;;;;0.67;0.67;;;;;16.30;61.63;100091.75;5051513;28;9182;-69
2022/04/06 07:43:33;;;;;;;;;3.00;3.00;;;;;16.27;61.45;100078.63;5051324;28;8783;-70
2022/04/06 07:45:58;;;;;;;;;1.33;1.33;;;;;16.27;61.56;100079.47;5051482;28;8802;-68
2022/04/06 07:48:26;;;;;;;;;1.00;1.00;;;;;16.27;61.36;100076.81;5051826;28;8770;-68
2022/04/06 07:50:52;;;;;;;;;4.67;2.67;;;;;16.28;61.16;100075.94;5051427;28;8881;-69
2022/04/06 07:53:17;;;;;;;;;2.00;2.00;;;;;16.29;60.69;100071.56;5052156;28;9450;-69
2022/04/06 07:55:44;;;;;;;;;2.00;2.00;;;;;16.28;60.73;100072.44;5051994;28;8807;-69
2022/04/06 07:58:09;;;;;;;;;1.00;1.00;;;;;16.29;60.73;100075.06;5050875;28;8795;-69
2022/04/06 08:00:35;;;;;;;;;2.67;1.67;;;;;16.27;60.90;100071.56;5051615;28;9063;-69
2022/04/06 08:03:01;;;;;;;;;1.33;1.33;;;;;16.28;60.98;100070.69;5051097;28;8791;-70
2022/04/06 08:05:29;;;;;;;;;1.67;1.67;;;;;16.27;60.51;100066.28;5050485;28;8805;-70
2022/04/06 08:07:54;;;;;;;;;1.00;1.00;;;;;16.26;60.30;100063.69;5068273;28;9494;-69
2022/04/06 08:10:23;;;;;;;;;1.00;1.00;;;;;16.26;60.42;100066.34;5071242;28;9188;-69
2022/04/06 08:12:48;;;;;;;;;1.00;1.00;;;;;16.26;60.65;100067.22;5062780;28;9506;-70
2022/04/06 08:15:15;;;;;;;;;2.00;2.00;;;;;16.28;60.36;100067.16;5051001;28;9198;-69
2022/04/06 08:17:45;;;;;;;;;3.67;3.00;;;;;16.26;60.22;100063.69;5051503;28;8926;-70
2022/04/06 08:20:13;;;;;;;;;2.00;1.00;;;;;16.24;60.09;100071.59;5049417;28;9281;-69
2022/04/06 08:22:41;;;;;;;;;1.00;1.00;;;;;16.25;60.00;100067.22;5051256;28;9183;-69
2022/04/06 08:25:07;;;;;;;;;1.00;1.00;;;;;16.27;60.10;100060.19;5050957;28;9359;-70
2022/04/06 08:27:36;;;;;;;;;0.33;0.33;;;;;16.24;60.04;100066.34;5050446;28;9080;-69
2022/04/06 08:30:03;;;;;;;;;1.00;1.00;;;;;16.23;59.94;100064.59;5050798;28;11538;-70
2022/04/06 08:32:28;;;;;;;;;0.00;0.00;;;;;16.24;60.05;100050.53;5050997;28;9122;-69
2022/04/06 08:34:55;;;;;;;;;0.00;0.00;;;;;16.28;60.12;100054.00;5049747;28;9047;-69
2022/04/06 08:37:21;;;;;;;;;3.00;1.33;;;;;16.24;59.90;100047.91;5051049;28;8778;-70
2022/04/06 08:39:46;;;;;;;;;1.33;0.00;;;;;16.23;59.89;100059.31;5049823;28;9085;-71
2022/04/06 08:42:14;;;;;;;;;1.00;1.00;;;;;16.21;59.59;100045.31;5050987;28;8848;-69
2022/04/06 08:44:40;;;;;;;;;2.00;2.00;;;;;16.24;59.82;100054.94;5050575;28;8844;-69
2022/04/06 08:47:06;;;;;;;;;0.00;0.00;;;;;16.20;59.57;100045.31;5049840;28;9259;-69
2022/04/06 08:49:34;;;;;;;;;0.67;0.67;;;;;16.22;59.48;100040.94;5050756;28;8763;-70
2022/04/06 08:52:00;;;;;;;;;1.67;1.67;;;;;16.21;59.69;100042.69;5050309;28;9101;-69
2022/04/06 08:54:26;;;;;;;;;2.00;1.67;;;;;16.23;59.76;100043.53;5049837;28;9253;-69
2022/04/06 08:56:51;;;;;;;;;1.00;1.00;;;;;16.24;59.69;100041.75;5050157;28;9222;-70
2022/04/06 08:59:17;;;;;;;;;3.00;2.00;;;;;16.22;59.67;100048.81;5050286;28;8826;-70
2022/04/06 09:01:42;;;;;;;;;2.00;0.00;;;;;16.22;59.60;100038.28;5049658;28;8764;-70
2022/04/06 09:04:07;;;;;;;;;1.67;1.00;;;;;16.21;59.80;100042.69;5049972;28;8933;-70
2022/04/06 09:06:40;;;;;;;;;2.00;2.00;;;;;16.24;59.33;100032.09;5056290;28;8805;-69
2022/04/06 09:09:07;;;;;;;;;3.00;1.00;;;;;16.22;59.53;100038.28;5069259;28;8906;-70
2022/04/06 09:11:41;;;;;;;;;0.00;0.00;;;;;16.19;59.44;100041.84;5070315;28;9251;-70
2022/04/06 09:14:06;;;;;;;;;0.67;0.67;;;;;16.22;59.51;100038.28;5051659;28;9163;-70
2022/04/06 09:16:32;;;;;;;;;1.00;1.00;;;;;16.23;59.44;100037.41;5049601;28;9210;-70
2022/04/06 09:19:06;;;;;;;;;1.00;1.00;;;;;16.24;59.38;100054.94;5050104;28;8782;-69
2022/04/06 09:21:40;;;;;;;;;1.00;0.33;;;;;16.24;59.30;100045.28;5050251;28;8793;-69
2022/04/06 09:24:12;;;;;;;;;1.00;1.00;;;;;16.25;59.38;100035.59;5049149;28;9223;-70
2022/04/06 09:26:37;;;;;;;;;1.67;1.00;;;;;16.21;59.15;100036.53;5050344;28;9244;-69
2022/04/06 09:29:03;;;;;;;;;0.00;0.00;;;;;16.23;59.49;100042.69;5049268;28;9284;-70
2022/04/06 09:31:38;;;;;;;;;2.33;1.33;;;;;16.24;59.06;100047.03;5051937;28;8783;-69
2022/04/06 09:34:04;;;;;;;;;1.00;0.33;;;;;16.23;59.19;100050.56;5054119;28;8787;-70
2022/04/06 09:36:31;;;;;;;;;1.00;1.00;;;;;16.23;59.39;100029.50;5053465;28;9281;-69
2022/04/06 09:38:56;;;;;;;;;1.00;1.00;;;;;16.20;59.46;100033.03;5053894;28;9276;-69
2022/04/06 09:41:21;;;;;;;;;1.67;1.00;;;;;16.24;59.49;100039.13;5054130;28;9190;-69
2022/04/06 09:43:51;;;;;;;;;2.33;1.00;;;;;16.24;59.40;100036.50;5052929;28;8791;-69
2022/04/06 09:49:10;;;;;;;;;1.67;1.00;;;;;16.20;59.32;100035.66;5053878;28;9795;-70
2022/04/06 09:51:37;;;;;;;;;2.00;0.67;;;;;16.24;59.05;100032.09;5053463;28;9782;-69
2022/04/06 09:54:04;;;;;;;;;2.67;1.67;;;;;16.23;59.29;100025.09;5053878;28;9015;-70
2022/04/06 09:56:31;;;;;;;;;0.00;0.00;;;;;16.24;59.18;100016.31;5053843;28;9055;-70
2022/04/06 09:58:57;;;;;;;;;0.00;0.00;;;;;16.26;59.47;100021.56;5053013;28;8947;-70
2022/04/06 10:01:26;;;;;;;;;3.67;1.33;;;;;16.22;59.06;100015.47;5053547;28;9742;-69
2022/04/06 10:03:54;;;;;;;;;2.67;1.33;;;;;16.26;59.25;100009.25;5053229;28;11221;-70
2022/04/06 10:06:20;;;;;;;;;1.00;1.00;;;;;16.26;58.67;100008.38;5057134;28;9993;-70
2022/04/06 10:08:47;;;;;;;;;0.33;0.33;;;;;16.27;59.25;100015.41;5072822;28;9045;-70
2022/04/06 10:11:13;;;;;;;;;1.00;1.00;;;;;16.28;59.26;100014.50;5072874;28;8776;-69
2022/04/06 10:13:39;;;;;;;;;2.33;1.00;;;;;16.27;58.95;100008.34;5059020;28;8962;-69
2022/04/06 10:16:11;;;;;;;;;1.00;1.00;;;;;16.26;59.01;100013.66;5052833;28;9547;-70
2022/04/06 10:18:38;;;;;;;;;1.00;1.00;;;;;16.25;59.15;100001.38;5052848;28;9010;-70
2022/04/06 10:21:18;;;;;;;;;1.00;0.67;;;;;16.25;59.36;100001.38;5052977;28;9094;-70
2022/04/06 10:24:10;;;;;;;;;2.00;2.00;;;;;16.24;59.39;99999.63;5053033;28;9013;-69
2022/04/06 10:26:54;;;;;;;;;1.00;0.00;;;;;16.25;59.38;100004.00;5052213;28;9029;-69
2022/04/06 10:29:20;;;;;;;;;2.00;1.00;;;;;16.24;59.09;99997.88;5053111;28;9148;-69
2022/04/06 10:31:46;;;;;;;;;2.00;1.00;;;;;16.24;59.55;99997.00;5072329;28;9036;-69
2022/04/06 10:34:22;;;;;;;;;1.00;1.00;;;;;16.24;59.17;99997.00;5072294;28;9006;-70
2022/04/06 10:37:07;;;;;;;;;2.00;1.00;;;;;16.25;59.52;99996.09;5073024;28;8849;-69
2022/04/06 10:40:03;;;;;;;;;1.00;1.00;;;;;16.24;59.39;99976.78;5072545;28;8933;-70
2022/04/06 10:42:35;;;;;;;;;2.00;2.00;;;;;16.23;59.24;99977.69;5071898;28;9841;-70
2022/04/06 10:45:03;;;;;;;;;0.00;0.00;;;;;16.25;59.47;99967.13;5072659;28;9159;-70
2022/04/06 10:47:32;;;;;;;;;1.33;1.33;;;;;16.24;59.09;99971.53;5072206;28;8985;-70
2022/04/06 10:50:15;;;;;;;;;0.33;0.00;;;;;16.25;59.08;99968.00;5072370;28;9042;-69
2022/04/06 10:52:42;;;;;;;;;1.00;1.00;;;;;16.26;59.06;99968.88;5072777;28;9740;-69
2022/04/06 10:55:20;;;;;;;;;1.67;1.33;;;;;16.25;59.15;99968.00;5071925;28;9034;-69
2022/04/06 10:58:15;;;;;;;;;0.75;0.75;;;;;16.26;59.29;99959.22;5072243;28;8946;-69
2022/04/06 11:00:41;;;;;;;;;1.67;1.00;;;;;16.27;59.00;99960.94;5058612;28;8776;-69
2022/04/06 11:03:18;;;;;;;;;0.00;0.00;;;;;16.26;59.01;99967.13;5072636;28;9089;-69
2022/04/06 11:05:47;;;;;;;;;1.00;1.00;;;;;16.26;59.06;99960.97;5072248;28;9003;-69
2022/04/06 11:12:23;;;;;;;;;1.00;1.00;;;;;16.27;59.25;99955.66;5072480;28;9113;-70
2022/04/06 11:14:49;;;;;;;;;1.00;1.00;;;;;16.26;59.24;99953.06;5068971;28;9270;-69
2022/04/06 11:17:34;;;;;;;;;1.33;1.00;;;;;16.26;58.94;99945.19;5072938;28;8996;-69
2022/04/06 11:20:06;;;;;;;;;1.00;0.00;;;;;16.26;59.00;99942.53;5072092;28;9126;-68
2022/04/06 11:22:32;;;;;;;;;1.33;1.33;;;;;16.25;59.23;99952.19;5071565;28;10013;-69
2022/04/06 11:24:59;;;;;;;;;1.00;1.00;;;;;16.25;59.29;99951.31;5071693;28;9009;-70
2022/04/06 11:27:34;;;;;;;;;1.33;1.00;;;;;16.26;59.32;99938.16;5072523;28;8817;-69
2022/04/06 11:30:00;;;;;;;;;0.67;0.00;;;;;16.25;59.04;99944.31;5071322;28;9083;-68
2022/04/06 11:32:25;;;;;;;;;1.00;1.00;;;;;16.25;59.14;99932.88;5072332;28;8953;-69
2022/04/06 11:34:50;;;;;;;;;0.67;0.67;;;;;16.24;59.37;99942.56;5071825;28;8961;-69
2022/04/06 11:37:16;;;;;;;;;0.00;0.00;;;;;16.23;59.03;99934.69;5071322;28;8780;-69
2022/04/06 11:39:41;;;;;;;;;1.00;0.00;;;;;16.27;59.25;99939.03;5071927;28;9553;-70
2022/04/06 11:42:16;;;;;;;;;0.33;0.33;;;;;16.24;59.07;99934.66;5071796;28;8768;-69
2022/04/06 11:44:43;;;;;;;;;1.00;1.00;;;;;16.26;59.47;99937.28;5071043;28;8832;-70